Time;durP1;ratioP1;P1;durP2;ratioP2;P2;SDS_P1;SDS_P2;PMS_P1;PMS_P2;Temp;Humidity;BMP_temperature;BMP_pressure;BME280_temperature;BME280_humidity;BME280_pressure;Samples;Min_cycle;Max_cycle;Signal;HPM_P1;HPM_P2
2022/12/26 00:00:34;;;;;;;53.47;41.03;;;9.50;99.90;;;;;;5054640;28;20028;-69
2022/12/26 00:03:00;;;;;;;54.63;42.17;;;9.50;99.90;;;;;;5054822;28;20022;-69
2022/12/26 00:05:25;;;;;;;58.97;41.80;;;9.50;99.90;;;;;;5053654;28;20025;-73
2022/12/26 00:07:51;;;;;;;60.83;43.20;;;9.40;99.90;;;;;;5054792;28;20060;-67
2022/12/26 00:10:17;;;;;;;65.03;45.05;;;9.40;99.90;;;;;;5055193;28;20103;-65
2022/12/26 00:12:42;;;;;;;60.53;41.13;;;9.40;99.90;;;;;;5054774;28;20028;-68
2022/12/26 00:15:08;;;;;;;131.50;83.85;;;9.40;99.90;;;;;;5054289;28;20446;-68
2022/12/26 00:17:34;;;;;;;102.53;67.68;;;9.30;99.90;;;;;;5054410;28;20032;-68
2022/12/26 00:19:59;;;;;;;82.78;55.28;;;9.30;99.90;;;;;;5054566;28;20029;-70
2022/12/26 00:22:25;;;;;;;83.03;54.25;;;9.30;99.90;;;;;;5054437;28;20017;-66
2022/12/26 00:24:51;;;;;;;78.18;53.38;;;9.40;99.90;;;;;;5054384;28;20031;-65
2022/12/26 00:27:16;;;;;;;66.13;47.40;;;9.40;99.90;;;;;;5054304;28;20036;-70
2022/12/26 00:29:42;;;;;;;68.38;46.55;;;9.40;99.90;;;;;;5054484;28;20059;-63
2022/12/26 00:32:08;;;;;;;68.32;46.22;;;9.30;99.90;;;;;;5054430;28;20020;-70
2022/12/26 00:34:33;;;;;;;61.78;43.08;;;9.20;99.90;;;;;;5053918;28;20071;-66
2022/12/26 00:36:59;;;;;;;49.38;34.47;;;9.20;99.90;;;;;;5054224;28;20021;-67
2022/12/26 00:39:25;;;;;;;44.08;32.03;;;9.10;99.90;;;;;;5054201;28;20100;-67
2022/12/26 00:41:50;;;;;;;42.00;30.88;;;9.10;99.90;;;;;;5053945;28;20021;-66
2022/12/26 00:44:16;;;;;;;38.92;28.38;;;9.20;99.90;;;;;;5053928;28;20036;-65
2022/12/26 00:46:42;;;;;;;39.38;28.63;;;9.30;99.90;;;;;;5053968;28;20085;-66
2022/12/26 00:49:08;;;;;;;36.70;27.40;;;9.30;99.90;;;;;;5053907;28;20524;-67
2022/12/26 00:51:33;;;;;;;38.72;28.70;;;9.30;99.90;;;;;;5054002;28;20021;-72
2022/12/26 00:53:59;;;;;;;38.35;27.38;;;9.40;99.90;;;;;;5053820;28;20029;-64
2022/12/26 00:56:25;;;;;;;43.30;31.00;;;9.40;99.90;;;;;;5053709;28;20386;-69
2022/12/26 00:58:51;;;;;;;40.75;30.02;;;9.40;99.90;;;;;;5053752;28;20071;-66
2022/12/26 01:01:19;;;;;;;42.10;29.70;;;9.30;99.90;;;;;;5053782;28;20020;-68
2022/12/26 01:03:46;;;;;;;32.78;25.75;;;9.30;99.90;;;;;;5053398;28;20474;-73
2022/12/26 01:06:13;;;;;;;33.45;25.92;;;9.20;99.90;;;;;;5053505;28;20025;-69
2022/12/26 01:08:39;;;;;;;27.45;21.58;;;9.10;99.90;;;;;;5053810;28;20383;-66
2022/12/26 01:11:11;;;;;;;27.52;21.85;;;9.00;99.90;;;;;;5053650;28;20017;-65
2022/12/26 01:13:38;;;;;;;27.25;20.42;;;8.90;99.90;;;;;;5053463;28;20499;-68
2022/12/26 01:16:04;;;;;;;43.15;27.52;;;8.90;99.90;;;;;;5053503;28;20014;-67
2022/12/26 01:18:30;;;;;;;42.55;28.67;;;8.80;99.90;;;;;;5053456;28;20071;-67
2022/12/26 01:21:05;;;;;;;29.52;22.73;;;8.90;99.90;;;;;;5053580;28;20021;-70
2022/12/26 01:23:30;;;;;;;38.33;25.83;;;8.90;99.90;;;;;;5053775;28;20421;-66
2022/12/26 01:25:56;;;;;;;27.48;19.75;;;8.90;99.90;;;;;;5053253;28;20025;-68
2022/12/26 01:28:22;;;;;;;25.05;18.35;;;8.80;99.90;;;;;;5053164;28;20017;-65
2022/12/26 01:30:48;;;;;;;25.42;18.80;;;8.90;99.90;;;;;;5053332;28;20509;-66
2022/12/26 01:33:13;;;;;;;26.25;19.80;;;9.00;99.90;;;;;;5052920;28;20068;-66
2022/12/26 01:35:47;;;;;;;23.98;17.33;;;9.00;99.90;;;;;;5053368;28;20033;-68
2022/12/26 01:38:12;;;;;;;23.27;17.10;;;9.00;99.90;;;;;;5053375;28;20142;-69
2022/12/26 01:40:42;;;;;;;22.08;16.77;;;8.90;99.90;;;;;;5053157;28;20067;-65
2022/12/26 01:43:11;;;;;;;28.42;21.42;;;9.00;99.90;;;;;;5053062;28;20021;-66
2022/12/26 01:45:37;;;;;;;26.58;20.73;;;9.00;99.90;;;;;;5053155;28;20582;-73
2022/12/26 01:48:05;;;;;;;26.85;19.50;;;9.00;99.90;;;;;;5053297;28;20091;-66
2022/12/26 01:50:52;;;;;;;30.30;21.90;;;8.90;99.90;;;;;;5053172;28;20104;-72
2022/12/26 01:53:38;;;;;;;30.70;21.23;;;8.90;99.90;;;;;;5052954;28;20017;-66
2022/12/26 01:56:10;;;;;;;31.23;22.67;;;8.90;99.90;;;;;;5053416;28;20480;-71
2022/12/26 01:58:45;;;;;;;25.35;19.23;;;8.80;99.90;;;;;;5051794;28;20152;-66
2022/12/26 02:01:12;;;;;;;30.73;22.23;;;8.80;99.90;;;;;;5053035;28;20021;-72
2022/12/26 02:06:26;;;;;;;25.80;19.17;;;8.60;99.90;;;;;;5053233;28;20082;-73
2022/12/26 02:08:52;;;;;;;31.58;22.58;;;8.60;99.90;;;;;;5052979;28;20539;-67
2022/12/26 02:11:24;;;;;;;28.98;20.67;;;8.70;99.90;;;;;;5052690;28;20043;-70
2022/12/26 02:13:50;;;;;;;27.27;20.05;;;8.60;99.90;;;;;;5052975;28;20017;-73
2022/12/26 02:16:17;;;;;;;26.33;20.60;;;8.60;99.90;;;;;;5053555;28;20025;-66
2022/12/26 02:18:44;;;;;;;30.55;23.13;;;8.60;99.90;;;;;;5056820;28;20032;-69
2022/12/26 02:21:45;;;;;;;39.45;27.20;;;8.50;99.90;;;;;;5056734;28;20025;-69
2022/12/26 02:24:20;;;;;;;31.90;23.48;;;8.40;99.90;;;;;;5054819;28;20108;-65
2022/12/26 02:27:23;;;;;;;36.60;24.75;;;8.20;99.90;;;;;;5056461;28;20031;-67
2022/12/26 02:30:22;;;;;;;26.83;20.13;;;8.20;99.90;;;;;;5056513;28;20478;-68
2022/12/26 02:32:53;;;;;;;36.30;24.83;;;8.20;99.90;;;;;;5056643;28;20032;-67
2022/12/26 02:35:25;;;;;;;41.78;29.38;;;8.30;99.90;;;;;;5055904;28;20473;-65
2022/12/26 02:38:09;;;;;;;40.63;29.10;;;8.20;99.90;;;;;;5056489;28;20032;-68
2022/12/26 02:41:12;;;;;;;36.35;25.63;;;8.00;99.90;;;;;;5056249;28;20382;-69
2022/12/26 02:43:40;;;;;;;37.25;25.45;;;8.00;99.90;;;;;;5056349;28;20506;-65
2022/12/26 02:49:30;;;;;;;43.13;29.02;;;8.00;99.90;;;;;;5056372;28;20028;-69
2022/12/26 03:15:26;;;;;;;30.65;21.98;;;7.90;99.90;;;;;;5055751;28;20129;-64
2022/12/26 03:18:02;;;;;;;28.10;20.17;;;7.70;99.90;;;;;;5055888;28;20024;-66
2022/12/26 03:20:34;;;;;;;21.95;17.60;;;7.70;99.90;;;;;;5055763;28;20106;-66
2022/12/26 03:23:13;;;;;;;22.13;16.75;;;7.70;99.90;;;;;;5055640;28;20040;-66
2022/12/26 03:28:29;;;;;;;17.77;13.98;;;7.80;99.90;;;;;;5055466;28;20047;-72
2022/12/26 03:30:58;;;;;;;20.33;15.30;;;7.80;99.90;;;;;;5055524;28;20459;-66
2022/12/26 03:36:46;;;;;;;20.30;14.95;;;7.70;99.90;;;;;;5055407;28;20126;-70
2022/12/26 04:20:09;;;;;;;19.02;13.68;;;7.40;99.90;;;;;;5055004;28;20060;-65
2022/12/26 04:45:34;;;;;;;19.65;14.13;;;7.10;99.90;;;;;;5054370;28;20079;-63
2022/12/26 04:50:51;;;;;;;26.48;17.13;;;7.20;99.90;;;;;;5054212;28;20024;-70
2022/12/26 04:53:18;;;;;;;23.48;16.15;;;7.20;99.90;;;;;;5053952;28;20108;-66
2022/12/26 04:55:44;;;;;;;19.17;13.73;;;7.10;99.90;;;;;;5053847;28;20398;-69
2022/12/26 04:58:10;;;;;;;27.35;17.95;;;7.10;99.90;;;;;;5053864;28;20021;-71
2022/12/26 05:00:36;;;;;;;26.70;17.85;;;7.10;99.90;;;;;;5054008;28;20352;-66
2022/12/26 05:11:29;;;;;;;44.38;27.42;;;7.00;99.90;;;;;;5053874;28;20031;-70
2022/12/26 05:13:56;;;;;;;33.90;22.50;;;6.80;99.90;;;;;;5053529;28;20386;-66
2022/12/26 05:30:32;;;;;;;59.00;36.38;;;6.80;99.90;;;;;;5051597;28;20502;-69
2022/12/26 05:35:42;;;;;;;37.10;26.98;;;6.80;99.90;;;;;;5053121;28;20052;-66
2022/12/26 05:38:10;;;;;;;36.33;25.60;;;6.80;99.90;;;;;;5053244;28;20422;-66
2022/12/26 05:40:35;;;;;;;36.20;24.92;;;6.80;99.90;;;;;;5053252;28;20098;-69
2022/12/26 05:43:01;;;;;;;31.65;21.88;;;6.80;99.90;;;;;;5053249;28;20080;-66
2022/12/26 05:45:27;;;;;;;39.25;25.67;;;6.80;99.90;;;;;;5053218;28;20036;-69
2022/12/26 05:48:00;;;;;;;41.35;26.70;;;6.80;99.90;;;;;;5053050;28;20092;-67
2022/12/26 05:50:26;;;;;;;39.60;26.95;;;6.70;99.90;;;;;;5053085;28;20029;-70
2022/12/26 05:52:51;;;;;;;48.80;31.90;;;6.60;99.90;;;;;;5057375;28;20100;-65
2022/12/26 05:55:17;;;;;;;38.53;26.45;;;6.60;99.90;;;;;;5056227;28;20040;-70
2022/12/26 05:57:43;;;;;;;46.15;28.63;;;6.60;99.90;;;;;;5056088;28;20378;-65
2022/12/26 06:00:09;;;;;;;39.33;27.27;;;6.70;99.90;;;;;;5056956;28;20028;-65
2022/12/26 06:02:35;;;;;;;102.10;61.88;;;6.70;99.90;;;;;;5057152;28;20021;-69
2022/12/26 06:05:01;;;;;;;141.00;91.45;;;6.60;99.90;;;;;;5056682;28;20031;-68
2022/12/26 06:07:26;;;;;;;110.15;72.55;;;6.40;99.90;;;;;;5056735;28;20071;-67
2022/12/26 06:09:52;;;;;;;130.10;86.68;;;6.40;99.90;;;;;;5056942;28;20013;-71
2022/12/26 06:12:18;;;;;;;117.50;77.60;;;6.40;99.90;;;;;;5056588;28;20478;-67
2022/12/26 06:14:43;;;;;;;101.05;66.78;;;6.50;99.90;;;;;;5055438;28;20029;-67
2022/12/26 06:17:09;;;;;;;150.23;98.20;;;6.50;99.90;;;;;;5056958;28;20520;-64
2022/12/26 06:19:35;;;;;;;90.47;62.30;;;6.50;99.90;;;;;;5057063;28;20363;-68
2022/12/26 06:22:00;;;;;;;90.30;59.70;;;6.60;99.90;;;;;;5050814;28;20014;-70
2022/12/26 06:24:26;;;;;;;89.90;59.53;;;6.60;99.90;;;;;;5045306;28;20029;-66
2022/12/26 06:26:52;;;;;;;78.45;55.05;;;6.70;99.90;;;;;;5046475;28;20096;-67
2022/12/26 06:29:18;;;;;;;138.02;94.20;;;6.70;99.90;;;;;;5047193;28;20017;-65
2022/12/26 06:31:44;;;;;;;100.47;68.45;;;6.60;99.90;;;;;;5053631;28;20494;-74
2022/12/26 06:34:11;;;;;;;116.07;75.07;;;6.50;99.90;;;;;;5056252;28;20152;-72
2022/12/26 06:36:37;;;;;;;190.50;126.15;;;6.50;99.90;;;;;;5055596;28;20029;-73
2022/12/26 06:39:03;;;;;;;179.85;116.45;;;6.50;99.90;;;;;;5056286;28;20025;-73
2022/12/26 06:41:28;;;;;;;143.60;95.55;;;6.50;99.90;;;;;;5056688;28;20031;-68
2022/12/26 06:43:54;;;;;;;213.10;132.50;;;6.50;99.90;;;;;;5053882;28;20017;-65
2022/12/26 06:46:23;;;;;;;245.57;154.13;;;6.60;99.90;;;;;;5051015;28;20025;-72
2022/12/26 06:48:49;;;;;;;248.57;159.45;;;6.60;99.90;;;;;;5041446;28;20571;-70
2022/12/26 06:51:23;;;;;;;223.98;146.60;;;6.50;99.90;;;;;;5036418;28;20100;-65
2022/12/26 06:53:50;;;;;;;155.43;109.07;;;6.50;99.90;;;;;;5036051;28;20028;-66
2022/12/26 06:56:19;;;;;;;169.85;114.55;;;6.50;99.90;;;;;;5036260;28;20028;-69
2022/12/26 06:58:45;;;;;;;208.57;129.77;;;6.60;99.90;;;;;;5036609;28;20112;-73
2022/12/26 07:01:14;;;;;;;197.35;131.27;;;6.60;99.90;;;;;;5036372;28;20464;-66
2022/12/26 07:03:41;;;;;;;159.13;112.35;;;6.60;99.90;;;;;;5037576;28;20017;-68
2022/12/26 07:06:17;;;;;;;139.15;95.20;;;6.60;99.90;;;;;;5038364;28;20021;-68
2022/12/26 07:08:43;;;;;;;100.65;71.95;;;6.60;99.90;;;;;;5037421;28;20495;-69
2022/12/26 07:11:17;;;;;;;92.90;65.55;;;6.70;99.90;;;;;;5044545;28;20036;-72
2022/12/26 07:13:43;;;;;;;82.55;58.72;;;6.80;99.90;;;;;;5042285;28;20467;-66
2022/12/26 07:16:09;;;;;;;135.73;90.50;;;6.90;99.90;;;;;;5046339;28;20163;-66
2022/12/26 07:18:35;;;;;;;138.70;92.68;;;6.80;99.90;;;;;;5044353;28;20053;-74
2022/12/26 07:21:05;;;;;;;108.15;76.88;;;6.70;99.90;;;;;;5044177;28;20068;-66
2022/12/26 07:23:31;;;;;;;252.32;161.15;;;6.80;99.90;;;;;;5044754;28;20057;-71
2022/12/26 07:25:57;;;;;;;181.88;122.10;;;6.80;99.90;;;;;;5046764;28;20506;-66
2022/12/26 07:28:23;;;;;;;227.73;143.48;;;6.60;99.90;;;;;;5044714;28;20471;-68
2022/12/26 07:30:49;;;;;;;185.40;119.10;;;6.60;99.90;;;;;;5042148;28;20460;-71
2022/12/26 07:33:16;;;;;;;229.50;136.13;;;6.60;99.90;;;;;;5052247;28;20025;-66
2022/12/26 07:35:42;;;;;;;259.85;149.52;;;6.80;99.90;;;;;;5051718;28;20507;-66
2022/12/26 07:38:09;;;;;;;273.73;167.80;;;6.80;99.90;;;;;;5054560;28;20029;-71
2022/12/26 07:40:34;;;;;;;283.42;186.38;;;6.80;99.90;;;;;;5055147;28;20021;-74
2022/12/26 07:43:00;;;;;;;359.38;259.17;;;6.80;99.90;;;;;;5054961;28;20019;-73
2022/12/26 07:45:26;;;;;;;419.25;308.45;;;6.80;99.90;;;;;;5047524;28;20108;-66
2022/12/26 07:47:56;;;;;;;393.50;282.17;;;6.80;99.90;;;;;;5033915;28;20025;-67
2022/12/26 07:50:23;;;;;;;394.00;280.27;;;6.80;99.90;;;;;;5038326;28;20091;-70
2022/12/26 07:52:49;;;;;;;368.88;264.90;;;6.80;99.90;;;;;;5042723;28;20021;-68
2022/12/26 07:55:15;;;;;;;382.48;278.20;;;7.00;99.90;;;;;;5042592;28;20095;-67
2022/12/26 07:57:54;;;;;;;347.70;253.25;;;7.50;99.90;;;;;;5035702;28;20479;-78
2022/12/26 08:00:26;;;;;;;330.17;236.65;;;8.60;99.90;;;;;;5042734;28;20498;-67
2022/12/26 08:02:52;;;;;;;324.27;231.13;;;9.20;99.90;;;;;;5036320;28;20095;-67
2022/12/26 08:05:19;;;;;;;296.40;214.82;;;9.70;99.90;;;;;;5045182;28;20037;-66
2022/12/26 08:07:47;;;;;;;271.65;198.07;;;10.60;99.90;;;;;;5040932;28;20029;-72
2022/12/26 08:10:15;;;;;;;241.32;176.30;;;11.50;99.90;;;;;;5051139;28;20033;-67
2022/12/26 08:12:41;;;;;;;277.08;189.70;;;11.70;99.90;;;;;;5039722;28;20033;-69
2022/12/26 08:15:08;;;;;;;251.90;178.32;;;12.80;99.90;;;;;;5040247;28;20044;-69
2022/12/26 08:17:34;;;;;;;218.65;153.85;;;12.90;99.90;;;;;;5039663;28;20029;-66
2022/12/26 08:20:00;;;;;;;208.95;144.80;;;12.80;99.90;;;;;;5042049;28;20532;-67
2022/12/26 08:22:26;;;;;;;198.38;134.90;;;12.60;99.90;;;;;;5050164;28;20032;-66
2022/12/26 08:24:52;;;;;;;167.02;122.32;;;12.50;99.90;;;;;;5039114;28;20115;-66
2022/12/26 08:27:18;;;;;;;233.23;147.73;;;12.80;99.90;;;;;;5040512;28;20495;-66
2022/12/26 08:29:44;;;;;;;182.13;121.15;;;12.90;99.90;;;;;;5038964;28;20031;-68
2022/12/26 08:32:10;;;;;;;247.05;159.02;;;12.40;99.90;;;;;;5037531;28;20032;-68
2022/12/26 08:34:36;;;;;;;201.95;134.85;;;12.50;99.90;;;;;;5040965;28;20415;-64
2022/12/26 08:37:02;;;;;;;185.13;122.38;;;12.50;99.90;;;;;;5050226;28;20031;-68
2022/12/26 08:39:27;;;;;;;185.05;123.65;;;12.20;99.90;;;;;;5039865;28;20033;-69
2022/12/26 08:41:53;;;;;;;175.13;116.53;;;11.90;99.90;;;;;;5040952;28;20037;-69
2022/12/26 08:44:19;;;;;;;151.63;107.72;;;11.90;99.90;;;;;;5038534;28;20467;-63
2022/12/26 08:46:45;;;;;;;145.63;103.90;;;12.70;99.90;;;;;;5036087;28;20024;-63
2022/12/26 08:49:14;;;;;;;194.55;133.18;;;12.70;99.90;;;;;;5043450;28;20022;-64
2022/12/26 08:51:39;;;;;;;181.30;125.30;;;12.30;99.90;;;;;;5060254;28;20024;-66
2022/12/26 08:54:05;;;;;;;143.80;107.10;;;11.90;99.90;;;;;;5044006;28;20025;-68
2022/12/26 08:56:31;;;;;;;132.88;97.45;;;12.40;99.90;;;;;;5045889;28;20036;-63
2022/12/26 08:58:57;;;;;;;116.30;87.43;;;13.10;99.90;;;;;;5037971;28;20029;-66
2022/12/26 09:01:26;;;;;;;130.73;94.95;;;13.80;99.90;;;;;;5044076;28;20036;-64
2022/12/26 09:04:00;;;;;;;99.00;81.10;;;13.70;99.90;;;;;;5037329;28;20037;-64
2022/12/26 09:06:34;;;;;;;106.80;81.10;;;13.50;99.90;;;;;;5034414;28;20411;-68
2022/12/26 09:09:10;;;;;;;135.23;104.10;;;13.50;99.90;;;;;;5400191;22;20126;-62
2022/12/26 09:11:37;;;;;;;203.23;148.88;;;13.70;99.90;;;;;;5004109;28;20045;-67
2022/12/26 09:14:04;;;;;;;152.90;117.80;;;13.60;99.90;;;;;;5011878;28;20025;-65
2022/12/26 09:16:35;;;;;;;159.82;118.85;;;13.50;99.90;;;;;;5003098;28;20035;-67
2022/12/26 09:19:03;;;;;;;142.25;111.38;;;13.60;99.90;;;;;;5003262;28;20388;-65
2022/12/26 09:21:32;;;;;;;131.70;103.10;;;14.00;99.90;;;;;;5005776;28;20076;-69
2022/12/26 09:24:00;;;;;;;138.68;107.70;;;14.40;99.90;;;;;;5007608;28;20472;-71
2022/12/26 09:26:26;;;;;;;139.18;107.15;;;14.60;99.90;;;;;;4999911;28;20021;-70
2022/12/26 09:28:54;;;;;;;118.93;99.03;;;14.90;99.90;;;;;;5004163;28;20041;-65
2022/12/26 09:31:24;;;;;;;203.20;144.40;;;15.10;99.90;;;;;;5003216;28;20030;-70
2022/12/26 09:33:52;;;;;;;141.75;113.03;;;15.20;99.90;;;;;;5005774;28;20029;-62
2022/12/26 09:36:26;;;;;;;119.72;93.72;;;15.30;99.90;;;;;;5008874;28;20042;-67
2022/12/26 09:38:54;;;;;;;104.05;85.10;;;15.60;99.60;;;;;;5003053;28;20023;-71
2022/12/26 09:41:39;;;;;;;90.78;76.50;;;15.90;98.10;;;;;;5002313;28;20464;-70
2022/12/26 09:44:26;;;;;;;82.28;69.20;;;16.20;98.00;;;;;;5004237;28;20026;-66
2022/12/26 09:47:04;;;;;;;98.10;79.07;;;16.60;93.20;;;;;;4990520;28;20687;-65
2022/12/26 09:49:35;;;;;;;101.88;82.80;;;16.80;73.90;;;;;;4987187;28;20090;-67
2022/12/26 09:52:11;;;;;;;86.15;71.95;;;16.50;87.60;;;;;;4992379;28;20052;-67
2022/12/26 09:54:41;;;;;;;82.93;67.30;;;16.60;90.70;;;;;;5006289;28;20026;-67
2022/12/26 09:57:17;;;;;;;72.60;62.75;;;16.90;86.30;;;;;;5007919;28;20030;-67
2022/12/26 09:59:55;;;;;;;65.03;57.88;;;17.00;90.60;;;;;;5004679;28;20042;-63
2022/12/26 10:02:23;;;;;;;59.15;52.55;;;17.00;82.40;;;;;;5009434;28;20034;-69
2022/12/26 10:04:50;;;;;;;63.55;54.30;;;17.20;92.20;;;;;;5008464;28;20518;-66
2022/12/26 10:07:24;;;;;;;79.88;69.40;;;17.50;87.10;;;;;;5009677;28;20040;-66
2022/12/26 10:10:02;;;;;;;81.10;71.28;;;17.30;75.10;;;;;;5000898;28;20054;-65
2022/12/26 10:12:52;;;;;;;80.35;71.70;;;17.40;82.70;;;;;;5000280;28;20097;-65
2022/12/26 10:15:27;;;;;;;85.38;73.20;;;17.60;78.20;;;;;;5002328;28;20048;-65
2022/12/26 10:18:01;;;;;;;73.93;64.88;;;18.00;73.20;;;;;;5002077;28;20036;-68
2022/12/26 10:20:45;;;;;;;62.30;55.63;;;18.20;74.40;;;;;;5000785;28;20056;-69
2022/12/26 10:23:29;;;;;;;58.40;51.58;;;18.50;64.80;;;;;;5010917;28;20101;-64
2022/12/26 10:26:13;;;;;;;53.83;48.05;;;18.60;62.70;;;;;;5011234;28;20033;-66
2022/12/26 10:28:55;;;;;;;59.00;50.55;;;18.70;65.00;;;;;;5012310;28;20431;-65
2022/12/26 10:31:37;;;;;;;55.78;49.95;;;18.70;62.40;;;;;;5011126;28;20041;-67
2022/12/26 10:34:23;;;;;;;61.72;54.97;;;18.90;62.30;;;;;;5011956;28;20411;-62
2022/12/26 10:37:11;;;;;;;58.25;52.20;;;19.20;61.30;;;;;;5012236;28;20045;-64
2022/12/26 10:39:48;;;;;;;60.05;53.67;;;19.10;62.20;;;;;;5009706;28;20044;-62
2022/12/26 10:42:33;;;;;;;57.20;51.20;;;19.10;62.40;;;;;;5014700;28;20026;-64
2022/12/26 10:45:00;;;;;;;56.17;48.03;;;19.30;67.40;;;;;;5010446;28;20010;-63
2022/12/26 10:47:41;;;;;;;53.88;48.30;;;19.40;61.50;;;;;;5006108;28;20053;-64
2022/12/26 10:50:15;;;;;;;54.55;47.20;;;19.60;61.80;;;;;;5004019;28;20022;-63
2022/12/26 10:52:41;;;;;;;49.42;44.30;;;19.70;60.70;;;;;;5002487;28;20026;-63
2022/12/26 10:55:14;;;;;;;49.90;44.70;;;19.90;57.60;;;;;;5005497;28;20356;-63
2022/12/26 10:57:41;;;;;;;60.10;51.63;;;19.90;57.30;;;;;;5001587;28;20032;-62
2022/12/26 11:00:20;;;;;;;55.30;49.35;;;20.10;57.00;;;;;;5004185;28;20526;-62
2022/12/26 11:03:08;;;;;;;57.58;50.17;;;20.30;56.90;;;;;;5002977;28;20022;-64
2022/12/26 11:05:37;;;;;;;59.60;52.58;;;20.50;55.50;;;;;;5002572;28;20034;-62
2022/12/26 11:08:11;;;;;;;59.42;51.10;;;20.60;55.50;;;;;;4999224;28;20114;-62
2022/12/26 11:10:37;;;;;;;55.67;49.30;;;20.70;54.90;;;;;;4993625;28;20039;-64
2022/12/26 11:13:16;;;;;;;55.63;45.63;;;20.80;55.60;;;;;;4995326;28;20100;-65
2022/12/26 11:15:53;;;;;;;52.72;45.78;;;20.80;55.40;;;;;;4995713;28;20026;-63
2022/12/26 11:18:45;;;;;;;52.47;46.88;;;20.80;55.20;;;;;;4995894;28;20037;-64
2022/12/26 11:21:32;;;;;;;51.80;46.03;;;21.00;55.00;;;;;;4995727;28;20380;-63
2022/12/26 11:24:20;;;;;;;48.92;41.20;;;21.00;55.60;;;;;;4995902;28;20033;-66
2022/12/26 11:26:46;;;;;;;44.15;39.30;;;20.90;54.90;;;;;;4996083;28;20070;-67
2022/12/26 11:29:22;;;;;;;43.28;38.67;;;20.90;55.00;;;;;;4995704;28;20057;-65
2022/12/26 11:32:03;;;;;;;38.97;34.63;;;21.00;54.70;;;;;;5005998;28;20041;-68
2022/12/26 11:34:34;;;;;;;38.58;34.42;;;21.10;54.10;;;;;;5006127;28;20038;-68
2022/12/26 11:37:00;;;;;;;36.03;32.22;;;21.20;53.90;;;;;;5014148;28;20033;-71
2022/12/26 11:39:35;;;;;;;36.05;32.35;;;21.30;53.50;;;;;;5012850;28;20030;-67
2022/12/26 11:42:10;;;;;;;37.17;33.35;;;21.30;53.50;;;;;;5014393;28;20022;-67
2022/12/26 11:44:39;;;;;;;100.47;85.57;;;21.40;53.30;;;;;;5012311;28;20062;-70
2022/12/26 11:47:08;;;;;;;103.03;90.70;;;21.50;54.60;;;;;;5015046;28;20034;-68
2022/12/26 11:49:36;;;;;;;98.88;87.15;;;21.20;55.60;;;;;;5012508;28;20049;-69
2022/12/26 11:52:34;;;;;;;116.18;103.40;;;21.10;56.10;;;;;;5012867;28;20537;-66
2022/12/26 11:55:00;;;;;;;111.22;99.13;;;20.60;56.70;;;;;;5012631;28;20499;-67
2022/12/26 11:57:31;;;;;;;102.15;86.95;;;20.10;59.30;;;;;;5014823;28;20034;-73
2022/12/26 12:00:23;;;;;;;76.68;68.15;;;19.80;61.30;;;;;;5014545;28;20403;-68
2022/12/26 12:02:49;;;;;;;97.40;82.00;;;19.40;69.10;;;;;;4994825;28;20031;-66
2022/12/26 12:05:27;;;;;;;71.05;59.15;;;19.10;81.40;;;;;;5001968;28;20049;-67
2022/12/26 12:08:11;;;;;;;68.32;59.97;;;18.80;81.20;;;;;;5014177;28;20033;-68
2022/12/26 12:10:52;;;;;;;;;;;18.70;86.10;;;;;;5013744;28;20117;-68
2022/12/26 12:13:27;;;;;;;71.75;58.25;;;18.50;83.20;;;;;;5010885;28;19910;-69
2022/12/26 12:15:57;;;;;;;59.95;50.40;;;18.40;90.80;;;;;;5012516;28;20064;-65
2022/12/26 12:18:58;;;;;;;44.03;39.47;;;18.40;91.50;;;;;;5004926;28;20025;-65
2022/12/26 12:21:39;;;;;;;41.28;36.80;;;18.30;94.00;;;;;;5005102;28;20362;-62
2022/12/26 12:24:23;;;;;;;38.28;34.35;;;18.10;95.60;;;;;;5004038;28;20349;-62
2022/12/26 12:27:04;;;;;;;55.03;46.55;;;18.00;97.90;;;;;;5008754;28;20335;-61
2022/12/26 12:29:38;;;;;;;41.92;37.40;;;17.90;96.90;;;;;;5000788;28;20030;-61
2022/12/26 12:32:21;;;;;;;32.20;28.92;;;17.90;97.50;;;;;;5026133;28;20387;-62
2022/12/26 12:34:58;;;;;;;24.15;21.75;;;17.90;96.50;;;;;;5005911;28;20385;-65
2022/12/26 12:37:53;;;;;;;93.15;73.60;;;17.80;99.80;;;;;;5010744;28;20026;-65
2022/12/26 12:40:27;;;;;;;93.25;77.47;;;17.70;99.80;;;;;;5000228;28;20032;-65
2022/12/26 12:43:34;;;;;;;96.18;78.35;;;17.70;98.50;;;;;;5009932;28;20210;-64
2022/12/26 12:46:12;;;;;;;112.65;89.80;;;17.80;99.10;;;;;;5012669;28;20088;-63
2022/12/26 12:48:49;;;;;;;113.70;91.63;;;17.80;99.20;;;;;;5011713;28;20037;-61
2022/12/26 12:51:46;;;;;;;95.43;78.68;;;17.90;97.10;;;;;;5010946;28;20029;-59
2022/12/26 12:54:26;;;;;;;158.10;128.23;;;17.80;98.40;;;;;;5011278;28;20044;-64
2022/12/26 12:57:11;;;;;;;160.45;132.90;;;17.60;99.60;;;;;;5012924;28;20029;-63
2022/12/26 13:00:11;;;;;;;181.30;142.52;;;17.50;99.90;;;;;;5011760;28;20025;-61
2022/12/26 13:03:09;;;;;;;114.35;89.30;;;17.50;99.90;;;;;;5013341;28;20036;-64
2022/12/26 13:06:01;;;;;;;143.00;106.10;;;17.40;99.90;;;;;;5013692;28;20480;-68
2022/12/26 13:08:40;;;;;;;118.53;90.55;;;17.30;99.90;;;;;;5012488;28;20034;-63
2022/12/26 13:11:27;;;;;;;122.97;98.28;;;17.20;99.90;;;;;;5013287;28;20045;-62
2022/12/26 13:14:05;;;;;;;41.60;36.95;;;17.20;99.90;;;;;;5012993;28;20033;-62
2022/12/26 13:20:35;;;;;;;88.10;69.45;;;17.20;99.90;;;;;;5012473;28;20061;-65
2022/12/26 13:26:20;;;;;;;37.45;33.50;;;17.00;99.90;;;;;;5010041;28;20028;-71
2022/12/26 13:29:03;;;;;;;39.53;35.80;;;17.00;99.90;;;;;;5009884;28;20038;-60
2022/12/26 13:31:34;;;;;;;28.10;25.35;;;17.00;99.90;;;;;;5012176;28;20460;-65
2022/12/26 13:34:01;;;;;;;28.52;25.63;;;16.90;99.90;;;;;;5012444;28;20033;-63
2022/12/26 13:36:40;;;;;;;33.33;29.73;;;17.00;99.90;;;;;;5011115;28;20238;-65
2022/12/26 13:39:11;;;;;;;29.60;26.48;;;17.10;99.90;;;;;;5011549;28;20491;-64
2022/12/26 13:44:31;;;;;;;21.17;19.08;;;17.20;99.90;;;;;;5012897;28;20065;-64
2022/12/26 13:46:58;;;;;;;20.25;18.25;;;17.20;99.90;;;;;;5013217;28;20448;-64
2022/12/26 13:49:38;;;;;;;18.67;16.88;;;17.30;99.90;;;;;;5013160;28;20379;-65
2022/12/26 13:52:10;;;;;;;21.00;18.90;;;17.20;99.90;;;;;;5013178;28;20033;-61
2022/12/26 13:54:50;;;;;;;21.13;17.27;;;17.00;99.90;;;;;;5013381;28;20026;-62
2022/12/26 13:57:25;;;;;;;18.48;16.58;;;16.90;99.90;;;;;;5011419;28;20495;-65
2022/12/26 14:00:00;;;;;;;20.58;18.48;;;16.80;99.90;;;;;;5011209;28;20052;-63
2022/12/26 14:02:57;;;;;;;22.75;19.92;;;16.80;99.90;;;;;;5010891;28;20110;-60
2022/12/26 14:05:34;;;;;;;21.75;18.55;;;16.70;99.90;;;;;;5012689;28;20022;-63
2022/12/26 14:08:37;;;;;;;27.15;20.65;;;16.60;99.90;;;;;;5012549;28;20045;-62
2022/12/26 14:11:33;;;;;;;26.95;19.75;;;16.60;99.90;;;;;;5010907;28;20077;-64
2022/12/26 14:14:17;;;;;;;32.38;22.60;;;16.30;99.90;;;;;;5016445;28;20022;-64
2022/12/26 14:17:13;;;;;;;25.35;19.48;;;16.10;99.90;;;;;;5017089;28;20022;-63
2022/12/26 14:19:47;;;;;;;22.77;19.25;;;16.10;99.90;;;;;;5016980;28;20511;-67
2022/12/26 14:22:42;;;;;;;25.17;20.45;;;15.90;99.90;;;;;;5017015;28;20018;-62
2022/12/26 14:25:31;;;;;;;19.55;16.52;;;15.80;99.90;;;;;;5016493;28;20042;-63
2022/12/26 14:28:31;;;;;;;26.25;21.05;;;15.60;99.90;;;;;;5016863;28;20022;-65
2022/12/26 14:31:06;;;;;;;43.67;30.63;;;15.50;99.90;;;;;;5016862;28;20109;-63
2022/12/26 14:33:38;;;;;;;67.72;46.10;;;15.40;99.90;;;;;;5016804;28;20028;-68
2022/12/26 14:36:06;;;;;;;49.05;38.38;;;15.30;99.90;;;;;;5016763;28;20125;-63
2022/12/26 14:38:56;;;;;;;40.08;33.08;;;15.30;99.90;;;;;;5016613;28;20026;-65
2022/12/26 14:44:21;;;;;;;48.17;37.17;;;15.20;99.90;;;;;;5016673;28;20077;-63
2022/12/26 14:46:47;;;;;;;52.80;41.53;;;15.10;99.90;;;;;;5016523;28;20030;-67
2022/12/26 14:49:30;;;;;;;41.67;34.22;;;14.90;99.90;;;;;;5016498;28;20022;-61
2022/12/26 14:52:15;;;;;;;;;;;14.80;99.90;;;;;;5016898;28;20046;-60
2022/12/26 14:54:45;;;;;;;71.60;53.45;;;14.70;99.90;;;;;;5015189;28;20326;-60
2022/12/26 14:57:35;;;;;;;82.40;62.03;;;14.70;99.90;;;;;;5016239;28;20380;-64
2022/12/26 15:00:13;;;;;;;85.95;69.65;;;14.50;99.90;;;;;;5016305;28;20018;-62
2022/12/26 15:02:45;;;;;;;89.72;72.50;;;14.50;99.90;;;;;;5016162;28;20022;-65
2022/12/26 15:05:24;;;;;;;83.00;68.28;;;14.50;99.90;;;;;;5016415;28;20026;-67
2022/12/26 15:07:49;;;;;;;93.13;76.78;;;14.50;99.90;;;;;;5016088;28;20022;-63
2022/12/26 15:10:29;;;;;;;70.55;57.17;;;14.50;99.90;;;;;;5016155;28;20052;-65
2022/12/26 15:13:13;;;;;;;91.22;74.47;;;14.60;99.90;;;;;;5015868;28;20026;-63
2022/12/26 15:15:45;;;;;;;;;;;14.60;99.90;;;;;;5016481;28;20026;-66